Site contains unofficial IBTrACS data. Visit the IBTrACS Website to access archived data.

1879 Tropical Storm NOT_NAMED (1879252N33283)


IBTrACS version v04r00. Visit IBTrACS website for data access.
Please direct all questions to the IBTrACS Q and A forum

Storm track - Intensity - Wind Radii - Intensity Data - Source Data - All data

Summary Information

Storm ID 1879252N33283
Start Sep 8 12Z
Max Intensity 55 kt (Sep 13 00Z)
End Sep 14 06Z
ATCF IDs
Track status Best track data.

Storm track plot

Map of storm track

Intensity plots

Map of storm track

Radial wind information

No radial wind information for this storm


Position and Intensity Table

BASIN ISO_TIME_________ NATURE LAT LON MLC WIND
degrees north degrees east kts
NA 1879-09-08 12:00:00 TS 32.50 -76.80 30
NA 15:00:00 TS 32.61 -76.59 30
NA 18:00:00 TS 32.70 -76.40 30
NA 21:00:00 TS 32.76 -76.25 30
NA 1879-09-09 00:00:00 TS 32.80 -76.10 30
NA 03:00:00 TS 32.85 -75.90 30
NA 06:00:00 TS 32.90 -75.70 30
NA 09:00:00 TS 32.99 -75.52 30
NA 12:00:00 TS 33.00 -75.40 30
NA 15:00:00 TS 32.80 -75.38 30
NA 18:00:00 TS 32.50 -75.40 30
NA 21:00:00 TS 32.20 -75.38 30
NA 1879-09-10 00:00:00 TS 31.90 -75.40 30
NA 03:00:00 TS 31.64 -75.49 30
NA 06:00:00 TS 31.40 -75.60 30
NA 09:00:00 TS 31.14 -75.70 30
NA 12:00:00 TS 30.90 -75.80 30
NA 15:00:00 TS 30.68 -75.90 30
NA 18:00:00 TS 30.50 -76.00 30
NA 21:00:00 TS 30.35 -76.07 30
NA 1879-09-11 00:00:00 TS 30.20 -76.20 30
NA 03:00:00 TS 30.00 -76.47 30
NA 06:00:00 TS 29.80 -76.80 30
NA 09:00:00 TS 29.63 -77.10 30
NA 12:00:00 TS 29.50 -77.40 30
NA 15:00:00 TS 29.43 -77.71 30
NA 18:00:00 TS 29.40 -78.00 30
NA 21:00:00 TS 29.38 -78.26 30
NA 1879-09-12 00:00:00 TS 29.40 -78.50 30
NA 03:00:00 TS 29.44 -78.75 30
NA 06:00:00 TS 29.50 -79.00 30
NA 09:00:00 TS 29.54 -79.26 32
NA 12:00:00 TS 29.60 -79.50 35
NA 15:00:00 TS 29.68 -79.72 40
NA 18:00:00 TS 29.80 -79.90 45
NA 21:00:00 TS 29.95 -80.08 50
NA 1879-09-13 00:00:00 TS 30.10 -80.20 55
NA 03:00:00 TS 30.21 -80.22 55
NA 06:00:00 TS 30.30 -80.20 55
NA 09:00:00 TS 30.40 -80.20 50
NA 12:00:00 TS 30.50 -80.20 45
NA 15:00:00 TS 30.60 -80.20 40
NA 18:00:00 TS 30.70 -80.20 35
NA 21:00:00 TS 30.75 -80.21 32
NA 1879-09-14 00:00:00 TS 30.90 -80.20 30
NA 03:00:00 TS 31.28 -80.16 30
NA 06:00:00 TS 31.80 -80.10 30

Source Information

Agency Information
USA
TOKYO
CMA
HKO
NEWDELHI
REUNION
BOM
NADI
WELLINGTON
DS824
TD9636
TD9635
NEUMANN
MLC

All available IBTrACS Data

SEASON BASIN SUBBASIN ISO_TIME_________ NATURE LAT LON DIST2LAND LANDFALL IFLAG USA SSHS MLC LAT MLC LON MLC CLASS MLC WIND STORM SPEED STORM DIR
Year degrees north degrees east km km 1 degrees north degrees east kts kts degrees
1879 NA NA 1879-09-08 12:00:00 TS 32.50 -76.80 191 188 _____________O -1 32.50 -76.80 TD 30 4 58
1879 NA NA 15:00:00 TS 32.61 -76.59 194 193 _____________P -1 32.61 -76.59 TD 30 4 59
1879 NA NA 18:00:00 TS 32.70 -76.40 199 199 _____________O -1 32.70 -76.40 TD 30 3 63
1879 NA NA 21:00:00 TS 32.76 -76.25 207 207 _____________P -1 32.76 -76.25 TD 30 3 68
1879 NA NA 1879-09-09 00:00:00 TS 32.80 -76.10 214 214 _____________O -1 32.80 -76.10 TD 30 3 72
1879 NA NA 03:00:00 TS 32.85 -75.90 208 208 _____________P -1 32.85 -75.90 TD 30 4 73
1879 NA NA 06:00:00 TS 32.90 -75.70 213 206 _____________O -1 32.90 -75.70 TD 30 4 65
1879 NA NA 09:00:00 TS 32.99 -75.52 210 210 _____________P -1 32.99 -75.52 TD 30 3 68
1879 NA NA 12:00:00 TS 33.00 -75.40 214 214 _____________O -1 33.00 -75.40 TD 30 2 148
1879 NA NA 15:00:00 TS 32.80 -75.38 234 234 _____________P -1 32.80 -75.38 TD 30 5 178
1879 NA NA 18:00:00 TS 32.50 -75.40 265 265 _____________O -1 32.50 -75.40 TD 30 6 181
1879 NA NA 21:00:00 TS 32.20 -75.38 296 296 _____________P -1 32.20 -75.38 TD 30 6 179
1879 NA NA 1879-09-10 00:00:00 TS 31.90 -75.40 328 328 _____________O -1 31.90 -75.40 TD 30 6 189
1879 NA NA 03:00:00 TS 31.64 -75.49 346 346 _____________P -1 31.64 -75.49 TD 30 5 199
1879 NA NA 06:00:00 TS 31.40 -75.60 357 357 _____________O -1 31.40 -75.60 TD 30 5 200
1879 NA NA 09:00:00 TS 31.14 -75.70 379 379 _____________P -1 31.14 -75.70 TD 30 5 199
1879 NA NA 12:00:00 TS 30.90 -75.80 392 392 _____________O -1 30.90 -75.80 TD 30 5 201
1879 NA NA 15:00:00 TS 30.68 -75.90 407 407 _____________P -1 30.68 -75.90 TD 30 4 203
1879 NA NA 18:00:00 TS 30.50 -76.00 423 423 _____________O -1 30.50 -76.00 TD 30 4 204
1879 NA NA 21:00:00 TS 30.35 -76.07 433 433 _____________P -1 30.35 -76.07 TD 30 3 210
1879 NA NA 1879-09-11 00:00:00 TS 30.20 -76.20 434 422 _____________O -1 30.20 -76.20 TD 30 5 225
1879 NA NA 03:00:00 TS 30.00 -76.47 422 387 _____________P -1 30.00 -76.47 TD 30 7 232
1879 NA NA 06:00:00 TS 29.80 -76.80 387 352 _____________O -1 29.80 -76.80 TD 30 7 236
1879 NA NA 09:00:00 TS 29.63 -77.10 352 321 _____________P -1 29.63 -77.10 TD 30 6 240
1879 NA NA 12:00:00 TS 29.50 -77.40 321 290 _____________O -1 29.50 -77.40 TD 30 6 249
1879 NA NA 15:00:00 TS 29.43 -77.71 290 262 _____________P -1 29.43 -77.71 TD 30 5 259
1879 NA NA 18:00:00 TS 29.40 -78.00 262 245 _____________O -1 29.40 -78.00 TD 30 5 265
1879 NA NA 21:00:00 TS 29.38 -78.26 236 218 _____________P -1 29.38 -78.26 TD 30 4 270
1879 NA NA 1879-09-12 00:00:00 TS 29.40 -78.50 218 201 _____________O -1 29.40 -78.50 TD 30 4 278
1879 NA NA 03:00:00 TS 29.44 -78.75 201 183 _____________P -1 29.44 -78.75 TD 30 4 283
1879 NA NA 06:00:00 TS 29.50 -79.00 183 168 _____________O -1 29.50 -79.00 TD 30 5 283
1879 NA NA 09:00:00 TS 29.54 -79.26 160 146 _____________P -1 29.54 -79.26 TD 32 4 283
1879 NA NA 12:00:00 TS 29.60 -79.50 146 134 _____________O -1 29.60 -79.50 TS 35 4 290
1879 NA NA 15:00:00 TS 29.68 -79.72 134 124 _____________P -1 29.68 -79.72 TS 40 4 300
1879 NA NA 18:00:00 TS 29.80 -79.90 124 111 _____________O -1 29.80 -79.90 TS 45 4 310
1879 NA NA 21:00:00 TS 29.95 -80.08 115 106 _____________P -1 29.95 -80.08 TS 50 4 319
1879 NA NA 1879-09-13 00:00:00 TS 30.10 -80.20 111 111 _____________O -1 30.10 -80.20 TS 55 3 334
1879 NA NA 03:00:00 TS 30.21 -80.22 114 114 _____________P -1 30.21 -80.22 TS 55 2 8
1879 NA NA 06:00:00 TS 30.30 -80.20 117 117 _____________O -1 30.30 -80.20 TS 55 2 7
1879 NA NA 09:00:00 TS 30.40 -80.20 119 116 _____________P -1 30.40 -80.20 TS 50 2 8
1879 NA NA 12:00:00 TS 30.50 -80.20 116 115 _____________O -1 30.50 -80.20 TS 45 2 8
1879 NA NA 15:00:00 TS 30.60 -80.20 115 114 _____________P -1 30.60 -80.20 TS 40 2 8
1879 NA NA 18:00:00 TS 30.70 -80.20 114 114 _____________O -1 30.70 -80.20 TS 35 1 355
1879 NA NA 21:00:00 TS 30.75 -80.21 114 113 _____________P -1 30.75 -80.21 TS 32 2 8
1879 NA NA 1879-09-14 00:00:00 TS 30.90 -80.20 113 94 _____________O -1 30.90 -80.20 TD 30 5 4
1879 NA NA 03:00:00 TS 31.28 -80.16 94 71 _____________P -1 31.28 -80.16 TD 30 9 5
1879 NA NA 06:00:00 TS 31.80 -80.10 71 _____________O -1 31.80 -80.10 TD 30 10 7